createdAt,value
2018-07-08T00:00:51.932Z,16.30
2018-07-08T00:03:25.925Z,16.30
2018-07-08T00:05:59.731Z,16.20
2018-07-08T00:08:33.646Z,16.20
2018-07-08T00:11:07.461Z,16.20
2018-07-08T00:13:41.516Z,16.20
2018-07-08T00:16:15.369Z,16.20
2018-07-08T00:18:49.292Z,16.20
2018-07-08T00:21:23.221Z,16.20
2018-07-08T00:23:57.188Z,16.20
2018-07-08T00:26:30.993Z,16.20
2018-07-08T00:29:04.940Z,16.20
2018-07-08T00:31:39.025Z,16.20
2018-07-08T00:34:12.938Z,16.10
2018-07-08T00:36:46.824Z,16.10
2018-07-08T00:39:20.814Z,16.10
2018-07-08T00:41:54.884Z,16.10
2018-07-08T00:44:28.842Z,16.00
2018-07-08T00:47:02.733Z,16.00
2018-07-08T00:49:36.609Z,16.00
2018-07-08T00:52:10.526Z,16.00
2018-07-08T00:54:44.531Z,16.00
2018-07-08T00:57:18.255Z,16.00
2018-07-08T00:59:52.119Z,16.00
2018-07-08T01:02:25.956Z,15.90
2018-07-08T01:04:59.743Z,15.90
2018-07-08T01:07:33.600Z,15.90
2018-07-08T01:10:07.546Z,15.90
2018-07-08T01:12:41.480Z,15.90
2018-07-08T01:15:15.507Z,15.90
2018-07-08T01:17:49.290Z,15.90
2018-07-08T01:20:23.536Z,15.90
2018-07-08T01:22:57.454Z,15.90
2018-07-08T01:25:52.530Z,15.80
2018-07-08T01:28:26.251Z,15.70
2018-07-08T01:31:00.037Z,15.70
2018-07-08T01:33:33.910Z,15.60
2018-07-08T01:36:08.048Z,15.60
2018-07-08T01:38:41.910Z,15.60
2018-07-08T01:41:15.675Z,15.60
2018-07-08T01:43:49.471Z,15.70
2018-07-08T01:46:23.261Z,15.70
2018-07-08T01:48:57.087Z,15.60
2018-07-08T01:51:30.893Z,15.60
2018-07-08T01:54:04.883Z,15.60
2018-07-08T01:56:38.682Z,15.60
2018-07-08T01:59:12.638Z,15.60
2018-07-08T02:01:46.523Z,15.60
2018-07-08T02:04:20.443Z,15.50
2018-07-08T02:06:54.390Z,15.50
2018-07-08T02:09:28.974Z,15.50
2018-07-08T02:12:02.809Z,15.50
2018-07-08T02:14:37.879Z,15.50
2018-07-08T02:17:12.472Z,15.50
2018-07-08T02:19:46.596Z,15.50
2018-07-08T02:22:20.928Z,15.40
2018-07-08T02:24:55.226Z,15.40
2018-07-08T02:27:29.192Z,15.30
2018-07-08T02:30:03.263Z,15.30
2018-07-08T02:32:37.390Z,15.30
2018-07-08T02:35:11.384Z,15.30
2018-07-08T02:37:45.261Z,15.30
2018-07-08T02:40:19.330Z,15.30
2018-07-08T02:42:53.802Z,15.30
2018-07-08T02:45:27.773Z,15.30
2018-07-08T02:48:02.053Z,15.30
2018-07-08T02:50:36.065Z,15.30
2018-07-08T02:53:10.155Z,15.30
2018-07-08T02:58:17.183Z,15.20
2018-07-08T03:00:51.111Z,15.20
2018-07-08T03:03:25.011Z,15.20
2018-07-08T03:05:58.880Z,15.10
2018-07-08T03:08:32.638Z,15.10
2018-07-08T03:11:06.433Z,15.10
2018-07-08T03:13:40.277Z,15.10
2018-07-08T03:16:14.244Z,15.10
2018-07-08T03:18:48.069Z,15.10
2018-07-08T03:21:21.959Z,15.10
2018-07-08T03:23:55.898Z,15.10
2018-07-08T03:26:29.659Z,15.10
2018-07-08T03:29:03.502Z,15.10
2018-07-08T03:31:37.371Z,15.10
2018-07-08T03:34:11.276Z,15.10
2018-07-08T03:36:45.192Z,15.10
2018-07-08T03:39:19.537Z,15.10
2018-07-08T03:41:53.380Z,15.00
2018-07-08T03:44:27.247Z,15.00
2018-07-08T03:47:00.981Z,15.10
2018-07-08T03:49:35.130Z,15.10
2018-07-08T03:52:09.219Z,15.00
2018-07-08T03:54:43.151Z,15.00
2018-07-08T03:57:17.219Z,15.00
2018-07-08T03:59:51.035Z,15.00
2018-07-08T04:02:24.921Z,15.00
2018-07-08T04:04:58.820Z,15.00
2018-07-08T04:07:32.818Z,15.00
2018-07-08T04:10:06.765Z,15.00
2018-07-08T04:12:40.575Z,15.00
2018-07-08T04:15:14.468Z,15.00
2018-07-08T04:17:48.521Z,15.00
2018-07-08T04:20:22.303Z,15.00
2018-07-08T04:22:56.547Z,15.10
2018-07-08T04:25:30.388Z,15.10
2018-07-08T04:28:04.846Z,15.10
2018-07-08T04:30:38.766Z,15.10
2018-07-08T04:33:12.688Z,15.20
2018-07-08T04:35:46.503Z,15.20
2018-07-08T04:38:20.295Z,15.20
2018-07-08T04:40:54.116Z,15.20
2018-07-08T04:43:28.014Z,15.20
2018-07-08T04:46:01.861Z,15.30
2018-07-08T04:48:35.696Z,15.30
2018-07-08T04:51:09.533Z,15.30
2018-07-08T04:53:43.430Z,15.30
2018-07-08T04:56:17.250Z,15.30
2018-07-08T04:58:51.276Z,15.30
2018-07-08T05:01:25.284Z,15.30
2018-07-08T05:03:59.088Z,15.30
2018-07-08T05:06:32.922Z,15.40
2018-07-08T05:09:07.453Z,15.40
2018-07-08T05:11:41.315Z,15.40
2018-07-08T05:14:15.203Z,15.40
2018-07-08T05:16:49.120Z,15.40
2018-07-08T05:19:23.032Z,15.40
2018-07-08T05:21:56.988Z,15.40
2018-07-08T05:24:30.910Z,15.50
2018-07-08T05:27:04.776Z,15.60
2018-07-08T05:29:38.614Z,15.60
2018-07-08T05:32:12.566Z,15.80
2018-07-08T05:34:46.369Z,15.80
2018-07-08T05:37:20.389Z,15.80
2018-07-08T05:39:54.346Z,15.80
2018-07-08T05:42:28.301Z,15.80
2018-07-08T05:45:02.184Z,15.80
2018-07-08T05:47:36.030Z,15.90
2018-07-08T05:50:10.105Z,16.00
2018-07-08T05:52:44.039Z,16.00
2018-07-08T05:55:18.000Z,16.10
2018-07-08T05:57:51.901Z,16.20
2018-07-08T06:00:25.692Z,16.30
2018-07-08T06:02:59.624Z,16.40
2018-07-08T06:05:33.489Z,16.50
2018-07-08T06:08:07.349Z,16.50
2018-07-08T06:10:41.202Z,16.50
2018-07-08T06:13:15.011Z,16.60
2018-07-08T06:15:48.868Z,16.70
2018-07-08T06:18:22.707Z,16.80
2018-07-08T06:20:56.576Z,16.90
2018-07-08T06:23:30.463Z,16.90
2018-07-08T06:26:04.419Z,17.00
2018-07-08T06:28:38.459Z,17.10
2018-07-08T06:31:12.377Z,17.10
2018-07-08T06:33:46.324Z,17.20
2018-07-08T06:36:20.597Z,17.10
2018-07-08T06:38:54.415Z,17.00
2018-07-08T06:41:28.402Z,17.00
2018-07-08T06:44:02.435Z,17.10
2018-07-08T06:46:36.263Z,17.10
2018-07-08T06:49:10.081Z,17.10
2018-07-08T06:51:43.868Z,17.20
2018-07-08T06:54:17.914Z,17.30
2018-07-08T06:56:51.668Z,17.40
2018-07-08T06:59:25.665Z,17.50
2018-07-08T07:01:59.484Z,17.60
2018-07-08T07:04:33.464Z,17.60
2018-07-08T07:07:07.426Z,17.70
2018-07-08T07:09:41.370Z,17.80
2018-07-08T07:12:15.183Z,17.90
2018-07-08T07:14:49.059Z,18.10
2018-07-08T07:17:23.030Z,18.10
2018-07-08T07:19:56.903Z,18.20
2018-07-08T07:22:30.782Z,18.30
2018-07-08T07:25:04.661Z,18.30
2018-07-08T07:27:38.451Z,18.40
2018-07-08T07:30:13.998Z,18.50
2018-07-08T07:32:47.907Z,18.40
2018-07-08T07:35:21.920Z,18.50
2018-07-08T07:37:56.431Z,18.50
2018-07-08T07:40:30.291Z,18.50
2018-07-08T07:43:04.087Z,18.60
2018-07-08T07:45:40.542Z,18.60
2018-07-08T07:48:14.497Z,18.70
2018-07-08T07:50:48.488Z,18.80
2018-07-08T07:53:22.462Z,18.90
2018-07-08T07:55:56.296Z,18.90
2018-07-08T07:58:30.272Z,19.10
2018-07-08T08:01:04.019Z,19.30
2018-07-08T08:03:37.899Z,19.30
2018-07-08T08:06:12.065Z,19.40
2018-07-08T08:08:45.924Z,19.30
2018-07-08T08:11:19.817Z,19.40
2018-07-08T08:14:05.009Z,19.50
2018-07-08T08:16:38.778Z,19.60
2018-07-08T08:19:12.968Z,19.70
2018-07-08T08:21:46.886Z,19.80
2018-07-08T08:24:21.137Z,19.90
2018-07-08T08:26:55.853Z,20.00
2018-07-08T08:29:30.988Z,20.00
2018-07-08T08:32:05.958Z,20.10
2018-07-08T08:34:58.280Z,20.20
2018-07-08T08:37:34.857Z,20.30
2018-07-08T08:40:10.312Z,20.40
2018-07-08T08:42:44.161Z,20.50
2018-07-08T08:45:19.689Z,20.70
2018-07-08T08:47:53.514Z,20.70
2018-07-08T08:50:27.411Z,20.70
2018-07-08T08:53:01.188Z,20.80
2018-07-08T08:55:35.041Z,20.80
2018-07-08T08:58:08.874Z,20.80
2018-07-08T09:00:42.541Z,20.80
2018-07-08T09:03:16.373Z,20.80
2018-07-08T09:05:50.115Z,20.90
2018-07-08T09:08:23.884Z,20.90
2018-07-08T09:10:57.692Z,21.00
2018-07-08T09:13:31.502Z,21.00
2018-07-08T09:16:05.356Z,21.20
2018-07-08T09:18:39.221Z,21.30
2018-07-08T09:21:13.097Z,21.40
2018-07-08T09:23:47.960Z,21.40
2018-07-08T09:26:21.784Z,21.40
2018-07-08T09:28:55.900Z,21.60
2018-07-08T09:31:29.690Z,21.80
2018-07-08T09:34:03.535Z,21.90
2018-07-08T09:36:37.804Z,22.00
2018-07-08T09:39:15.188Z,22.10
2018-07-08T09:41:49.137Z,22.10
2018-07-08T09:44:23.009Z,22.20
2018-07-08T09:46:56.959Z,22.40
2018-07-08T09:49:30.739Z,22.50
2018-07-08T09:52:04.645Z,22.50
2018-07-08T09:54:38.434Z,22.50
2018-07-08T09:57:12.384Z,22.60
2018-07-08T09:59:46.167Z,22.70
2018-07-08T10:02:20.029Z,22.90
2018-07-08T10:04:53.967Z,23.00
2018-07-08T10:07:27.795Z,23.20
2018-07-08T10:10:01.547Z,23.40
2018-07-08T10:12:35.324Z,23.50
2018-07-08T10:15:09.220Z,23.60
2018-07-08T10:17:43.131Z,23.60
2018-07-08T10:20:20.381Z,23.70
2018-07-08T10:22:54.279Z,23.70
2018-07-08T10:25:28.269Z,23.70
2018-07-08T10:28:20.539Z,23.70
2018-07-08T10:30:54.693Z,24.00
2018-07-08T10:33:30.899Z,24.10
2018-07-08T10:36:05.607Z,24.30
2018-07-08T10:38:39.444Z,24.40
2018-07-08T10:41:13.271Z,24.50
2018-07-08T10:43:47.077Z,24.50
2018-07-08T10:46:20.846Z,24.50
2018-07-08T10:48:54.658Z,24.60
2018-07-08T10:51:28.691Z,24.70
2018-07-08T10:54:02.514Z,24.80
2018-07-08T10:56:36.368Z,24.80
2018-07-08T10:59:10.246Z,24.90
2018-07-08T11:01:44.183Z,25.10
2018-07-08T11:04:18.121Z,25.20
2018-07-08T11:06:55.936Z,25.20
2018-07-08T11:09:31.764Z,25.40
2018-07-08T11:12:07.247Z,25.30
2018-07-08T11:17:16.748Z,25.30
2018-07-08T11:19:51.136Z,25.10
2018-07-08T11:22:24.980Z,25.10
2018-07-08T11:25:03.147Z,25.10
2018-07-08T11:27:37.813Z,25.30
2018-07-08T11:30:14.635Z,25.40
2018-07-08T11:32:49.414Z,25.40
2018-07-08T11:37:58.028Z,25.30
2018-07-08T11:40:39.987Z,25.30
2018-07-08T11:43:14.360Z,25.40
2018-07-08T11:45:49.477Z,25.40
2018-07-08T11:48:23.337Z,25.50
2018-07-08T11:50:57.154Z,25.60
2018-07-08T11:53:31.107Z,25.70
2018-07-08T11:56:04.997Z,25.90
2018-07-08T11:58:38.818Z,25.80
2018-07-08T12:01:12.627Z,25.90
2018-07-08T12:03:46.470Z,26.10
2018-07-08T12:06:20.297Z,26.20
2018-07-08T12:08:54.115Z,26.40
2018-07-08T12:11:27.866Z,26.50
2018-07-08T12:14:01.606Z,26.70
2018-07-08T12:16:35.367Z,26.90
2018-07-08T12:19:09.195Z,26.70
2018-07-08T12:21:42.893Z,26.60
2018-07-08T12:24:16.611Z,26.40
2018-07-08T12:26:50.453Z,26.50
2018-07-08T12:29:24.227Z,26.60
2018-07-08T12:31:58.048Z,26.80
2018-07-08T12:34:31.859Z,27.00
2018-07-08T12:37:05.827Z,27.00
2018-07-08T12:39:39.642Z,27.10
2018-07-08T12:42:13.433Z,27.30
2018-07-08T12:44:47.400Z,27.40
2018-07-08T12:47:21.332Z,27.60
2018-07-08T12:49:55.035Z,27.70
2018-07-08T12:52:28.829Z,27.70
2018-07-08T12:55:02.662Z,27.90
2018-07-08T12:57:36.494Z,28.00
2018-07-08T13:00:10.421Z,28.20
2018-07-08T13:02:44.181Z,28.20
2018-07-08T13:05:17.233Z,28.00
2018-07-08T13:07:51.267Z,28.00
2018-07-08T13:10:25.069Z,27.90
2018-07-08T13:12:59.177Z,27.90
2018-07-08T13:15:32.987Z,27.90
2018-07-08T13:18:06.848Z,27.90
2018-07-08T13:20:40.638Z,28.00
2018-07-08T13:23:14.455Z,28.10
2018-07-08T13:25:48.299Z,28.20
2018-07-08T13:28:22.207Z,28.40
2018-07-08T13:30:56.020Z,28.60
2018-07-08T13:33:29.939Z,28.80
2018-07-08T13:36:03.788Z,28.80
2018-07-08T13:38:37.827Z,28.30
2018-07-08T13:41:11.802Z,28.10
2018-07-08T13:43:45.622Z,28.10
2018-07-08T13:46:19.476Z,28.20
2018-07-08T13:48:54.301Z,28.20
2018-07-08T13:51:28.180Z,28.30
2018-07-08T13:54:01.974Z,28.50
2018-07-08T13:56:35.863Z,28.80
2018-07-08T13:59:09.751Z,29.00
2018-07-08T14:01:43.533Z,29.00
2018-07-08T14:04:17.409Z,28.90
2018-07-08T14:06:51.234Z,29.10
2018-07-08T14:09:25.014Z,29.00
2018-07-08T14:11:58.753Z,28.80
2018-07-08T14:14:32.603Z,28.80
2018-07-08T14:17:06.422Z,28.70
2018-07-08T14:19:40.304Z,28.40
2018-07-08T14:22:14.033Z,28.40
2018-07-08T14:24:47.986Z,28.30
2018-07-08T14:27:21.869Z,28.40
2018-07-08T14:29:55.792Z,28.30
2018-07-08T14:32:29.683Z,28.20
2018-07-08T14:35:04.755Z,28.20
2018-07-08T14:37:38.597Z,28.20
2018-07-08T14:40:12.671Z,28.40
2018-07-08T14:42:46.529Z,28.70
2018-07-08T14:45:20.584Z,28.70
2018-07-08T14:47:54.396Z,28.70
2018-07-08T14:50:28.269Z,28.90
2018-07-08T14:53:02.030Z,29.30
2018-07-08T14:55:35.993Z,29.70
2018-07-08T14:58:09.772Z,29.80
2018-07-08T15:00:46.672Z,29.90
2018-07-08T15:03:24.877Z,29.80
2018-07-08T15:06:01.466Z,29.70
2018-07-08T15:08:39.080Z,29.80
2018-07-08T15:11:14.602Z,29.90
2018-07-08T15:13:49.407Z,29.90
2018-07-08T15:16:23.456Z,29.60
2018-07-08T15:18:58.805Z,29.50
2018-07-08T15:21:35.599Z,29.40
2018-07-08T15:24:11.599Z,29.50
2018-07-08T15:26:45.578Z,29.50
2018-07-08T15:29:20.583Z,29.50
2018-07-08T15:31:54.829Z,29.60
2018-07-08T15:34:36.243Z,29.80
2018-07-08T15:37:12.450Z,30.00
2018-07-08T15:39:48.905Z,30.30
2018-07-08T15:42:23.809Z,30.00
2018-07-08T15:45:00.073Z,29.60
2018-07-08T15:47:34.157Z,29.40
2018-07-08T15:50:08.170Z,29.20
2018-07-08T15:52:43.289Z,29.20
2018-07-08T15:55:17.937Z,29.20
2018-07-08T15:57:53.900Z,29.00
2018-07-08T16:00:27.755Z,28.80
2018-07-08T16:03:03.410Z,28.40
2018-07-08T16:08:12.278Z,28.40
2018-07-08T16:10:46.261Z,28.40
2018-07-08T16:13:22.058Z,28.10
2018-07-08T16:15:57.408Z,28.10
2018-07-08T16:18:31.853Z,28.20
2018-07-08T16:21:08.999Z,28.30
2018-07-08T16:23:44.722Z,28.40
2018-07-08T16:26:18.589Z,28.70
2018-07-08T16:28:53.971Z,28.60
2018-07-08T16:31:29.714Z,28.50
2018-07-08T16:34:06.287Z,28.30
2018-07-08T16:36:43.088Z,28.30
2018-07-08T16:39:17.507Z,28.10
2018-07-08T16:41:51.396Z,28.00
2018-07-08T16:44:25.273Z,28.20
2018-07-08T16:47:00.049Z,28.40
2018-07-08T16:49:35.967Z,28.50
2018-07-08T16:52:10.487Z,28.40
2018-07-08T16:54:44.975Z,28.10
2018-07-08T16:57:20.717Z,27.80
2018-07-08T16:59:56.200Z,27.90
2018-07-08T17:02:30.235Z,27.90
2018-07-08T17:05:04.158Z,27.80
2018-07-08T17:07:38.556Z,27.50
2018-07-08T17:10:12.453Z,27.30
2018-07-08T17:12:46.497Z,27.20
2018-07-08T17:15:21.191Z,26.90
2018-07-08T17:17:57.156Z,26.80
2018-07-08T17:20:31.652Z,26.70
2018-07-08T17:23:06.272Z,26.40
2018-07-08T17:28:14.999Z,26.00
2018-07-08T17:30:50.539Z,25.90
2018-07-08T17:33:27.069Z,25.70
2018-07-08T17:36:03.234Z,25.50
2018-07-08T17:38:46.553Z,25.50
2018-07-08T17:41:23.795Z,25.50
2018-07-08T17:43:57.832Z,25.60
2018-07-08T17:46:31.929Z,25.40
2018-07-08T17:49:06.733Z,25.30
2018-07-08T17:51:40.637Z,25.20
2018-07-08T17:54:14.539Z,25.10
2018-07-08T17:56:48.424Z,24.90
2018-07-08T17:59:22.265Z,24.70
2018-07-08T18:01:56.365Z,24.70
2018-07-08T18:04:30.282Z,24.60
2018-07-08T18:07:04.163Z,24.60
2018-07-08T18:09:37.914Z,24.50
2018-07-08T18:12:11.900Z,24.20
2018-07-08T18:14:45.697Z,24.10
2018-07-08T18:17:19.942Z,23.90
2018-07-08T18:19:53.714Z,23.80
2018-07-08T18:22:27.677Z,23.70
2018-07-08T18:25:01.499Z,23.60
2018-07-08T18:27:35.322Z,23.50
2018-07-08T18:30:09.741Z,23.40
2018-07-08T18:32:44.052Z,23.30
2018-07-08T18:35:18.483Z,23.30
2018-07-08T18:37:52.212Z,23.20
2018-07-08T18:40:26.195Z,23.10
2018-07-08T18:43:00.038Z,22.90
2018-07-08T18:45:35.690Z,22.70
2018-07-08T18:48:10.637Z,22.60
2018-07-08T18:50:45.359Z,22.60
2018-07-08T18:53:19.803Z,22.50
2018-07-08T18:55:55.765Z,22.50
2018-07-08T18:58:29.736Z,22.50
2018-07-08T19:01:05.495Z,22.50
2018-07-08T19:03:40.233Z,22.40
2018-07-08T19:06:15.409Z,22.40
2018-07-08T19:08:50.581Z,22.30
2018-07-08T19:11:24.432Z,22.20
2018-07-08T19:13:58.179Z,22.10
2018-07-08T19:16:32.043Z,22.10
2018-07-08T19:19:06.125Z,21.90
2018-07-08T19:21:40.055Z,21.70
2018-07-08T19:24:13.947Z,21.50
2018-07-08T19:26:47.945Z,21.30
2018-07-08T19:29:21.732Z,21.20
2018-07-08T19:31:56.102Z,21.10
2018-07-08T19:34:29.933Z,21.00
2018-07-08T19:37:06.220Z,20.90
2018-07-08T19:39:41.120Z,20.80
2018-07-08T19:42:16.307Z,20.70
2018-07-08T19:44:50.649Z,20.50
2018-07-08T19:47:24.551Z,20.50
2018-07-08T19:49:58.342Z,20.40
2018-07-08T19:52:32.647Z,20.40
2018-07-08T19:55:11.673Z,20.30
2018-07-08T19:57:45.599Z,20.30
2018-07-08T20:00:20.481Z,20.10
2018-07-08T20:03:00.088Z,20.00
2018-07-08T20:05:34.052Z,19.90
2018-07-08T20:08:07.843Z,19.80
2018-07-08T20:10:42.506Z,19.80
2018-07-08T20:13:16.345Z,19.60
2018-07-08T20:15:50.357Z,19.50
2018-07-08T20:18:24.371Z,19.40
2018-07-08T20:20:59.039Z,19.40
2018-07-08T20:23:32.917Z,19.30
2018-07-08T20:26:06.829Z,19.30
2018-07-08T20:28:40.860Z,19.30
2018-07-08T20:31:14.680Z,19.30
2018-07-08T20:33:48.546Z,19.20
2018-07-08T20:36:22.405Z,19.20
2018-07-08T20:38:56.225Z,19.20
2018-07-08T20:41:30.203Z,19.10
2018-07-08T20:44:04.109Z,19.00
2018-07-08T20:46:40.613Z,19.00
2018-07-08T20:49:17.742Z,19.00
2018-07-08T20:51:51.792Z,18.90
2018-07-08T20:54:25.759Z,18.80
2018-07-08T20:56:59.549Z,18.80
2018-07-08T20:59:33.469Z,18.80
2018-07-08T21:02:07.375Z,18.80
2018-07-08T21:04:41.281Z,18.80
2018-07-08T21:07:15.138Z,18.70
2018-07-08T21:09:49.404Z,18.70
2018-07-08T21:12:23.184Z,18.70
2018-07-08T21:14:57.829Z,18.60
2018-07-08T21:17:32.207Z,18.60
2018-07-08T21:20:06.206Z,18.50
2018-07-08T21:22:40.042Z,18.50
2018-07-08T21:25:13.849Z,18.50
2018-07-08T21:27:47.846Z,18.50
2018-07-08T21:30:21.655Z,18.40
2018-07-08T21:32:58.606Z,18.40
2018-07-08T21:35:32.490Z,18.40
2018-07-08T21:38:06.578Z,18.30
2018-07-08T21:40:40.421Z,18.30
2018-07-08T21:43:14.477Z,18.30
2018-07-08T21:45:48.164Z,18.30
2018-07-08T21:48:22.008Z,18.20
2018-07-08T21:50:55.791Z,18.20
2018-07-08T21:53:29.787Z,18.20
2018-07-08T21:56:03.685Z,18.20
2018-07-08T21:58:37.476Z,18.10
2018-07-08T22:01:19.830Z,18.00
2018-07-08T22:03:54.113Z,18.00
2018-07-08T22:06:27.950Z,18.00
2018-07-08T22:09:04.537Z,18.00
2018-07-08T22:11:38.711Z,17.90
2018-07-08T22:14:14.534Z,17.90
2018-07-08T22:16:49.760Z,17.80
2018-07-08T22:19:24.263Z,17.80
2018-07-08T22:21:59.068Z,17.70
2018-07-08T22:24:33.277Z,17.70
2018-07-08T22:27:08.643Z,17.60
2018-07-08T22:29:42.787Z,17.60
2018-07-08T22:32:17.406Z,17.60
2018-07-08T22:34:52.114Z,17.60
2018-07-08T22:37:27.421Z,17.50
2018-07-08T22:40:02.358Z,17.40
2018-07-08T22:42:38.677Z,17.40
2018-07-08T22:45:13.978Z,17.40
2018-07-08T22:47:47.912Z,17.40
2018-07-08T22:50:23.391Z,17.40
2018-07-08T22:52:59.066Z,17.30
2018-07-08T22:55:34.099Z,17.30
2018-07-08T22:58:07.985Z,17.30
2018-07-08T23:01:03.006Z,17.20
2018-07-08T23:04:08.680Z,17.20
2018-07-08T23:06:42.574Z,17.20
2018-07-08T23:09:16.430Z,17.10
2018-07-08T23:11:50.411Z,17.10
2018-07-08T23:14:24.234Z,17.10
2018-07-08T23:16:58.078Z,17.10
2018-07-08T23:19:31.993Z,17.10
2018-07-08T23:22:05.969Z,17.00
2018-07-08T23:24:39.688Z,17.00
2018-07-08T23:29:46.823Z,17.00
2018-07-08T23:32:20.846Z,16.90
2018-07-08T23:34:57.893Z,16.90
2018-07-08T23:37:32.140Z,16.90
2018-07-08T23:40:05.984Z,16.90
2018-07-08T23:42:40.079Z,16.90
2018-07-08T23:45:20.968Z,16.90
2018-07-08T23:47:54.739Z,16.80
2018-07-08T23:50:28.616Z,16.80
2018-07-08T23:53:02.636Z,16.70
2018-07-08T23:55:36.677Z,16.70
2018-07-08T23:58:10.791Z,16.70
